sensor_id;sensor_type;location;lat;lon;timestamp;pressure;altitude;pressure_sealevel;temperature;humidity
31911;BME280;18457;52.432;16.914;2022-12-29T00:01:50;99949.83;;;7.99;85.95
31911;BME280;18457;52.432;16.914;2022-12-29T00:04:24;99938.29;;;8.00;85.70
31911;BME280;18457;52.432;16.914;2022-12-29T00:06:56;99946.36;;;8.02;85.25
31911;BME280;18457;52.432;16.914;2022-12-29T00:09:28;99940.36;;;8.05;85.02
31911;BME280;18457;52.432;16.914;2022-12-29T00:12:01;99936.56;;;7.97;85.02
31911;BME280;18457;52.432;16.914;2022-12-29T00:14:34;99935.36;;;7.94;84.94
31911;BME280;18457;52.432;16.914;2022-12-29T00:17:25;99934.84;;;7.93;84.71
31911;BME280;18457;52.432;16.914;2022-12-29T00:19:56;99927.97;;;7.95;84.52
31911;BME280;18457;52.432;16.914;2022-12-29T00:22:47;99925.46;;;7.95;84.19
31911;BME280;18457;52.432;16.914;2022-12-29T00:25:37;99913.27;;;7.92;83.88
31911;BME280;18457;52.432;16.914;2022-12-29T00:28:26;99911.66;;;7.92;83.68
31911;BME280;18457;52.432;16.914;2022-12-29T00:31:30;99904.38;;;7.88;83.85
31911;BME280;18457;52.432;16.914;2022-12-29T00:34:19;99909.94;;;7.88;83.76
31911;BME280;18457;52.432;16.914;2022-12-29T00:37:08;99910.33;;;7.88;83.65
31911;BME280;18457;52.432;16.914;2022-12-29T00:39:40;99909.41;;;7.88;83.47
31911;BME280;18457;52.432;16.914;2022-12-29T00:42:29;99903.60;;;7.91;82.98
31911;BME280;18457;52.432;16.914;2022-12-29T00:45:18;99901.23;;;7.92;82.99
31911;BME280;18457;52.432;16.914;2022-12-29T00:47:51;99894.23;;;7.91;82.88
31911;BME280;18457;52.432;16.914;2022-12-29T00:50:22;99892.88;;;7.88;82.76
31911;BME280;18457;52.432;16.914;2022-12-29T00:52:54;99890.02;;;7.95;82.61
31911;BME280;18457;52.432;16.914;2022-12-29T00:55:26;99888.08;;;7.93;82.61
31911;BME280;18457;52.432;16.914;2022-12-29T00:57:58;99879.63;;;7.93;82.34
31911;BME280;18457;52.432;16.914;2022-12-29T01:00:30;99879.20;;;7.96;82.07
31911;BME280;18457;52.432;16.914;2022-12-29T01:03:02;99883.39;;;7.94;82.08
31911;BME280;18457;52.432;16.914;2022-12-29T01:05:38;99881.46;;;7.91;82.18
31911;BME280;18457;52.432;16.914;2022-12-29T01:08:10;99881.71;;;7.97;81.91
31911;BME280;18457;52.432;16.914;2022-12-29T01:10:41;99876.45;;;7.99;81.84
31911;BME280;18457;52.432;16.914;2022-12-29T01:13:13;99875.60;;;7.96;81.89
31911;BME280;18457;52.432;16.914;2022-12-29T01:15:51;99880.89;;;7.93;81.98
31911;BME280;18457;52.432;16.914;2022-12-29T01:18:24;99876.10;;;7.91;81.95
31911;BME280;18457;52.432;16.914;2022-12-29T01:21:02;99874.76;;;7.95;81.83
31911;BME280;18457;52.432;16.914;2022-12-29T01:23:34;99875.09;;;7.95;81.90
31911;BME280;18457;52.432;16.914;2022-12-29T01:26:14;99877.60;;;7.96;81.71
31911;BME280;18457;52.432;16.914;2022-12-29T01:28:46;99876.23;;;7.93;81.58
31911;BME280;18457;52.432;16.914;2022-12-29T01:31:18;99871.83;;;7.96;81.50
31911;BME280;18457;52.432;16.914;2022-12-29T01:33:50;99865.58;;;7.95;81.48
31911;BME280;18457;52.432;16.914;2022-12-29T01:36:23;99859.84;;;7.94;81.36
31911;BME280;18457;52.432;16.914;2022-12-29T01:38:56;99858.58;;;7.94;81.18
31911;BME280;18457;52.432;16.914;2022-12-29T01:41:28;99857.66;;;7.95;81.27
31911;BME280;18457;52.432;16.914;2022-12-29T01:44:01;99860.10;;;7.98;81.11
31911;BME280;18457;52.432;16.914;2022-12-29T01:46:37;99861.54;;;7.99;81.19
31911;BME280;18457;52.432;16.914;2022-12-29T01:49:13;99863.64;;;8.01;80.96
31911;BME280;18457;52.432;16.914;2022-12-29T01:51:50;99868.94;;;8.04;80.66
31911;BME280;18457;52.432;16.914;2022-12-29T01:54:24;99859.48;;;8.02;80.62
31911;BME280;18457;52.432;16.914;2022-12-29T01:57:00;99854.42;;;8.03;80.54
31911;BME280;18457;52.432;16.914;2022-12-29T01:59:36;99845.48;;;8.01;80.50
31911;BME280;18457;52.432;16.914;2022-12-29T02:02:12;99841.55;;;8.00;80.07
31911;BME280;18457;52.432;16.914;2022-12-29T02:04:44;99830.83;;;8.04;79.97
31911;BME280;18457;52.432;16.914;2022-12-29T02:07:22;99825.70;;;8.08;79.97
31911;BME280;18457;52.432;16.914;2022-12-29T02:09:57;99816.61;;;8.05;79.92
31911;BME280;18457;52.432;16.914;2022-12-29T02:12:29;99813.06;;;8.11;79.53
31911;BME280;18457;52.432;16.914;2022-12-29T02:15:02;99813.54;;;8.13;79.64
31911;BME280;18457;52.432;16.914;2022-12-29T02:17:45;99816.21;;;8.14;79.73
31911;BME280;18457;52.432;16.914;2022-12-29T02:20:59;99818.10;;;8.18;79.78
31911;BME280;18457;52.432;16.914;2022-12-29T02:24:28;99815.84;;;8.14;79.97
31911;BME280;18457;52.432;16.914;2022-12-29T02:27:29;99811.31;;;8.16;80.07
31911;BME280;18457;52.432;16.914;2022-12-29T02:30:09;99810.42;;;8.15;80.76
31911;BME280;18457;52.432;16.914;2022-12-29T02:32:52;99809.51;;;8.16;81.24
31911;BME280;18457;52.432;16.914;2022-12-29T02:35:31;99806.94;;;8.18;81.44
31911;BME280;18457;52.432;16.914;2022-12-29T02:38:15;99800.73;;;8.06;82.15
31911;BME280;18457;52.432;16.914;2022-12-29T02:40:55;99802.27;;;8.10;82.35
31911;BME280;18457;52.432;16.914;2022-12-29T02:43:37;99798.87;;;8.10;82.44
31911;BME280;18457;52.432;16.914;2022-12-29T02:46:16;99799.88;;;8.13;82.37
31911;BME280;18457;52.432;16.914;2022-12-29T02:48:54;99793.06;;;8.12;82.74
31911;BME280;18457;52.432;16.914;2022-12-29T02:51:35;99786.89;;;8.06;83.16
31911;BME280;18457;52.432;16.914;2022-12-29T02:54:07;99779.51;;;8.06;83.58
31911;BME280;18457;52.432;16.914;2022-12-29T02:56:58;99777.19;;;8.05;83.65
31911;BME280;18457;52.432;16.914;2022-12-29T02:59:31;99773.86;;;8.03;84.14
31911;BME280;18457;52.432;16.914;2022-12-29T03:02:24;99774.65;;;7.99;84.78
31911;BME280;18457;52.432;16.914;2022-12-29T03:05:18;99772.70;;;7.98;85.22
31911;BME280;18457;52.432;16.914;2022-12-29T03:07:59;99774.52;;;7.90;85.95
31911;BME280;18457;52.432;16.914;2022-12-29T03:10:41;99768.40;;;7.97;85.65
31911;BME280;18457;52.432;16.914;2022-12-29T03:13:23;99766.31;;;8.01;85.62
31911;BME280;18457;52.432;16.914;2022-12-29T03:16:21;99764.95;;;7.99;85.07
31911;BME280;18457;52.432;16.914;2022-12-29T03:19:00;99761.91;;;7.98;84.83
31911;BME280;18457;52.432;16.914;2022-12-29T03:21:37;99760.42;;;7.92;85.22
31911;BME280;18457;52.432;16.914;2022-12-29T03:24:45;99763.81;;;7.93;85.33
31911;BME280;18457;52.432;16.914;2022-12-29T03:27:26;99766.20;;;8.00;85.56
31911;BME280;18457;52.432;16.914;2022-12-29T03:30:02;99769.52;;;8.03;85.79
31911;BME280;18457;52.432;16.914;2022-12-29T03:32:38;99771.91;;;8.01;86.14
31911;BME280;18457;52.432;16.914;2022-12-29T03:35:14;99769.66;;;7.81;87.80
31911;BME280;18457;52.432;16.914;2022-12-29T03:37:51;99768.58;;;7.90;87.62
31911;BME280;18457;52.432;16.914;2022-12-29T03:40:27;99765.67;;;7.91;87.84
31911;BME280;18457;52.432;16.914;2022-12-29T03:43:01;99762.23;;;7.92;88.53
31911;BME280;18457;52.432;16.914;2022-12-29T03:45:34;99764.45;;;7.81;89.38
31911;BME280;18457;52.432;16.914;2022-12-29T03:48:06;99763.53;;;7.90;88.93
31911;BME280;18457;52.432;16.914;2022-12-29T03:50:40;99762.30;;;7.89;89.52
31911;BME280;18457;52.432;16.914;2022-12-29T03:53:13;99758.50;;;7.89;89.56
31911;BME280;18457;52.432;16.914;2022-12-29T03:55:46;99753.63;;;7.91;89.00
31911;BME280;18457;52.432;16.914;2022-12-29T03:58:18;99751.94;;;7.86;88.82
31911;BME280;18457;52.432;16.914;2022-12-29T04:00:55;99747.33;;;7.83;88.58
31911;BME280;18457;52.432;16.914;2022-12-29T04:05:59;99748.43;;;7.90;87.45
31911;BME280;18457;52.432;16.914;2022-12-29T04:08:36;99742.97;;;7.92;87.25
31911;BME280;18457;52.432;16.914;2022-12-29T04:11:09;99733.50;;;7.90;86.76
31911;BME280;18457;52.432;16.914;2022-12-29T04:13:42;99736.50;;;7.92;86.16
31911;BME280;18457;52.432;16.914;2022-12-29T04:16:17;99725.30;;;7.95;85.84
31911;BME280;18457;52.432;16.914;2022-12-29T04:18:49;99722.09;;;8.02;85.29
31911;BME280;18457;52.432;16.914;2022-12-29T04:21:21;99721.83;;;8.04;85.16
31911;BME280;18457;52.432;16.914;2022-12-29T04:23:53;99722.72;;;8.12;84.67
31911;BME280;18457;52.432;16.914;2022-12-29T04:26:25;99725.52;;;8.08;84.05
31911;BME280;18457;52.432;16.914;2022-12-29T04:29:03;99729.52;;;7.99;84.08
31911;BME280;18457;52.432;16.914;2022-12-29T04:31:43;99726.08;;;8.07;83.42
31911;BME280;18457;52.432;16.914;2022-12-29T04:34:15;99727.09;;;8.10;82.86
31911;BME280;18457;52.432;16.914;2022-12-29T04:36:48;99727.06;;;8.03;82.75
31911;BME280;18457;52.432;16.914;2022-12-29T04:39:21;99730.57;;;8.07;82.28
31911;BME280;18457;52.432;16.914;2022-12-29T04:41:52;99732.70;;;8.15;81.63
31911;BME280;18457;52.432;16.914;2022-12-29T04:44:25;99734.42;;;8.19;81.21
31911;BME280;18457;52.432;16.914;2022-12-29T04:47:20;99725.88;;;8.22;80.59
31911;BME280;18457;52.432;16.914;2022-12-29T04:50:06;99723.06;;;8.27;79.97
31911;BME280;18457;52.432;16.914;2022-12-29T04:52:47;99721.44;;;8.35;79.86
31911;BME280;18457;52.432;16.914;2022-12-29T04:55:18;99720.40;;;8.33;79.38
31911;BME280;18457;52.432;16.914;2022-12-29T04:57:50;99719.69;;;8.25;79.29
31911;BME280;18457;52.432;16.914;2022-12-29T05:00:23;99719.54;;;8.32;79.05
31911;BME280;18457;52.432;16.914;2022-12-29T05:02:55;99716.75;;;8.35;79.00
31911;BME280;18457;52.432;16.914;2022-12-29T05:05:28;99713.77;;;8.39;78.53
31911;BME280;18457;52.432;16.914;2022-12-29T05:08:00;99704.48;;;8.43;78.41
31911;BME280;18457;52.432;16.914;2022-12-29T05:10:32;99694.91;;;8.44;78.38
31911;BME280;18457;52.432;16.914;2022-12-29T05:13:07;99692.98;;;8.35;78.39
31911;BME280;18457;52.432;16.914;2022-12-29T05:15:39;99691.02;;;8.35;78.60
31911;BME280;18457;52.432;16.914;2022-12-29T05:18:21;99687.95;;;8.42;78.56
31911;BME280;18457;52.432;16.914;2022-12-29T05:20:53;99680.65;;;8.39;78.34
31911;BME280;18457;52.432;16.914;2022-12-29T05:23:26;99672.88;;;8.40;78.31
31911;BME280;18457;52.432;16.914;2022-12-29T05:26:03;99666.52;;;8.42;78.14
31911;BME280;18457;52.432;16.914;2022-12-29T05:28:46;99664.89;;;8.36;78.23
31911;BME280;18457;52.432;16.914;2022-12-29T05:31:22;99663.98;;;8.37;78.30
31911;BME280;18457;52.432;16.914;2022-12-29T05:33:54;99656.61;;;8.36;78.17
31911;BME280;18457;52.432;16.914;2022-12-29T05:36:27;99665.60;;;8.37;78.45
31911;BME280;18457;52.432;16.914;2022-12-29T05:39:07;99664.08;;;8.39;78.43
31911;BME280;18457;52.432;16.914;2022-12-29T05:41:39;99665.88;;;8.39;78.25
31911;BME280;18457;52.432;16.914;2022-12-29T05:44:38;99661.59;;;8.45;78.36
31911;BME280;18457;52.432;16.914;2022-12-29T05:47:19;99661.29;;;8.43;78.34
31911;BME280;18457;52.432;16.914;2022-12-29T05:50:26;99658.56;;;8.44;78.46
31911;BME280;18457;52.432;16.914;2022-12-29T05:53:17;99659.31;;;8.49;78.49
31911;BME280;18457;52.432;16.914;2022-12-29T05:55:50;99654.44;;;8.49;78.47
31911;BME280;18457;52.432;16.914;2022-12-29T05:58:23;99655.21;;;8.48;78.34
31911;BME280;18457;52.432;16.914;2022-12-29T06:00:55;99646.62;;;8.53;78.21
31911;BME280;18457;52.432;16.914;2022-12-29T06:03:28;99650.02;;;8.60;78.20
31911;BME280;18457;52.432;16.914;2022-12-29T06:06:01;99644.31;;;8.58;78.07
31911;BME280;18457;52.432;16.914;2022-12-29T06:08:33;99653.87;;;8.57;78.09
31911;BME280;18457;52.432;16.914;2022-12-29T06:11:06;99656.98;;;8.49;78.32
31911;BME280;18457;52.432;16.914;2022-12-29T06:13:38;99662.41;;;8.48;78.30
31911;BME280;18457;52.432;16.914;2022-12-29T06:16:10;99670.18;;;8.47;78.38
31911;BME280;18457;52.432;16.914;2022-12-29T06:18:43;99673.92;;;8.54;78.25
31911;BME280;18457;52.432;16.914;2022-12-29T06:21:15;99675.63;;;8.52;78.16
31911;BME280;18457;52.432;16.914;2022-12-29T06:23:49;99667.59;;;8.56;78.18
31911;BME280;18457;52.432;16.914;2022-12-29T06:26:21;99660.66;;;8.59;77.99
31911;BME280;18457;52.432;16.914;2022-12-29T06:28:54;99664.13;;;8.63;77.96
31911;BME280;18457;52.432;16.914;2022-12-29T06:31:26;99672.26;;;8.63;78.00
31911;BME280;18457;52.432;16.914;2022-12-29T06:33:58;99676.63;;;8.60;78.00
31911;BME280;18457;52.432;16.914;2022-12-29T06:36:37;99688.05;;;8.65;77.78
31911;BME280;18457;52.432;16.914;2022-12-29T06:39:09;99683.58;;;8.70;77.78
31911;BME280;18457;52.432;16.914;2022-12-29T06:41:42;99676.36;;;8.70;77.65
31911;BME280;18457;52.432;16.914;2022-12-29T06:44:26;99680.16;;;8.69;77.80
31911;BME280;18457;52.432;16.914;2022-12-29T06:47:04;99682.17;;;8.75;77.63
31911;BME280;18457;52.432;16.914;2022-12-29T06:49:36;99669.41;;;8.74;77.68
31911;BME280;18457;52.432;16.914;2022-12-29T06:52:08;99663.85;;;8.73;77.69
31911;BME280;18457;52.432;16.914;2022-12-29T06:54:43;99669.23;;;8.74;77.82
31911;BME280;18457;52.432;16.914;2022-12-29T06:57:15;99675.20;;;8.79;77.69
31911;BME280;18457;52.432;16.914;2022-12-29T06:59:48;99678.80;;;8.79;77.67
31911;BME280;18457;52.432;16.914;2022-12-29T07:02:20;99675.17;;;8.80;77.70
31911;BME280;18457;52.432;16.914;2022-12-29T07:04:52;99677.35;;;8.86;77.52
31911;BME280;18457;52.432;16.914;2022-12-29T07:07:24;99683.34;;;8.85;77.60
31911;BME280;18457;52.432;16.914;2022-12-29T07:09:56;99677.50;;;8.87;77.66
31911;BME280;18457;52.432;16.914;2022-12-29T07:12:28;99685.23;;;8.87;77.82
31911;BME280;18457;52.432;16.914;2022-12-29T07:15:00;99685.37;;;8.89;77.58
31911;BME280;18457;52.432;16.914;2022-12-29T07:17:32;99691.33;;;8.88;77.74
31911;BME280;18457;52.432;16.914;2022-12-29T07:20:06;99687.49;;;8.90;77.65
31911;BME280;18457;52.432;16.914;2022-12-29T07:22:38;99687.52;;;8.90;77.48
31911;BME280;18457;52.432;16.914;2022-12-29T07:25:11;99689.00;;;8.94;77.33
31911;BME280;18457;52.432;16.914;2022-12-29T07:27:42;99678.83;;;8.97;77.06
31911;BME280;18457;52.432;16.914;2022-12-29T07:30:15;99680.77;;;8.98;77.10
31911;BME280;18457;52.432;16.914;2022-12-29T07:32:47;99677.08;;;8.95;77.18
31911;BME280;18457;52.432;16.914;2022-12-29T07:35:19;99673.83;;;9.02;77.08
31911;BME280;18457;52.432;16.914;2022-12-29T07:37:51;99677.45;;;9.06;76.99
31911;BME280;18457;52.432;16.914;2022-12-29T07:40:23;99670.45;;;9.06;76.96
31911;BME280;18457;52.432;16.914;2022-12-29T07:42:55;99674.32;;;9.09;76.76
31911;BME280;18457;52.432;16.914;2022-12-29T07:45:39;99674.61;;;9.11;76.63
31911;BME280;18457;52.432;16.914;2022-12-29T07:48:11;99671.25;;;9.09;76.65
31911;BME280;18457;52.432;16.914;2022-12-29T07:50:43;99669.98;;;9.10;76.56
31911;BME280;18457;52.432;16.914;2022-12-29T07:53:16;99662.31;;;9.13;76.74
31911;BME280;18457;52.432;16.914;2022-12-29T07:55:48;99669.88;;;9.13;76.52
31911;BME280;18457;52.432;16.914;2022-12-29T07:58:20;99682.52;;;9.06;76.80
31911;BME280;18457;52.432;16.914;2022-12-29T08:00:55;99688.11;;;9.12;76.74
31911;BME280;18457;52.432;16.914;2022-12-29T08:03:28;99682.19;;;9.17;76.57
31911;BME280;18457;52.432;16.914;2022-12-29T08:06:00;99677.65;;;9.18;76.54
31911;BME280;18457;52.432;16.914;2022-12-29T08:08:31;99675.32;;;9.24;76.47
31911;BME280;18457;52.432;16.914;2022-12-29T08:11:03;99675.54;;;9.23;76.49
31911;BME280;18457;52.432;16.914;2022-12-29T08:13:36;99666.17;;;9.23;76.48
31911;BME280;18457;52.432;16.914;2022-12-29T08:16:08;99676.23;;;9.23;76.46
31911;BME280;18457;52.432;16.914;2022-12-29T08:18:40;99678.20;;;9.24;76.42
31911;BME280;18457;52.432;16.914;2022-12-29T08:21:12;99674.97;;;9.24;76.26
31911;BME280;18457;52.432;16.914;2022-12-29T08:23:44;99682.90;;;9.23;76.51
31911;BME280;18457;52.432;16.914;2022-12-29T08:26:15;99682.59;;;9.28;76.35
31911;BME280;18457;52.432;16.914;2022-12-29T08:28:47;99687.05;;;9.29;76.44
31911;BME280;18457;52.432;16.914;2022-12-29T08:31:19;99688.69;;;9.34;76.23
31911;BME280;18457;52.432;16.914;2022-12-29T08:33:51;99687.04;;;9.29;76.26
31911;BME280;18457;52.432;16.914;2022-12-29T08:36:23;99684.55;;;9.34;76.16
31911;BME280;18457;52.432;16.914;2022-12-29T08:38:55;99685.17;;;9.37;76.09
31911;BME280;18457;52.432;16.914;2022-12-29T08:41:27;99689.61;;;9.40;76.13
31911;BME280;18457;52.432;16.914;2022-12-29T08:43:59;99688.82;;;9.41;75.98
31911;BME280;18457;52.432;16.914;2022-12-29T08:46:31;99689.90;;;9.41;76.08
31911;BME280;18457;52.432;16.914;2022-12-29T08:49:03;99688.28;;;9.42;75.94
31911;BME280;18457;52.432;16.914;2022-12-29T08:51:35;99691.45;;;9.44;76.01
31911;BME280;18457;52.432;16.914;2022-12-29T08:54:07;99692.15;;;9.45;75.98
31911;BME280;18457;52.432;16.914;2022-12-29T08:56:39;99686.34;;;9.46;75.95
31911;BME280;18457;52.432;16.914;2022-12-29T08:59:11;99685.98;;;9.46;75.96
31911;BME280;18457;52.432;16.914;2022-12-29T09:01:45;99687.95;;;9.47;75.93
31911;BME280;18457;52.432;16.914;2022-12-29T09:04:17;99689.23;;;9.51;75.87
31911;BME280;18457;52.432;16.914;2022-12-29T09:06:49;99692.70;;;9.50;76.02
31911;BME280;18457;52.432;16.914;2022-12-29T09:09:21;99691.90;;;9.47;76.09
31911;BME280;18457;52.432;16.914;2022-12-29T09:11:53;99684.57;;;9.56;76.12
31911;BME280;18457;52.432;16.914;2022-12-29T09:14:26;99678.80;;;9.56;76.20
31911;BME280;18457;52.432;16.914;2022-12-29T09:16:57;99679.57;;;9.60;76.04
31911;BME280;18457;52.432;16.914;2022-12-29T09:19:47;99681.98;;;9.70;76.01
31911;BME280;18457;52.432;16.914;2022-12-29T09:22:19;99677.52;;;9.74;75.88
31911;BME280;18457;52.432;16.914;2022-12-29T09:24:51;99671.73;;;9.80;75.90
31911;BME280;18457;52.432;16.914;2022-12-29T09:27:23;99671.23;;;9.84;75.80
31911;BME280;18457;52.432;16.914;2022-12-29T09:29:55;99672.89;;;9.83;76.01
31911;BME280;18457;52.432;16.914;2022-12-29T09:32:27;99679.84;;;9.91;75.70
31911;BME280;18457;52.432;16.914;2022-12-29T09:35:04;99677.06;;;9.93;75.35
31911;BME280;18457;52.432;16.914;2022-12-29T09:37:36;99674.81;;;10.01;75.41
31911;BME280;18457;52.432;16.914;2022-12-29T09:40:24;99676.91;;;9.98;75.23
31911;BME280;18457;52.432;16.914;2022-12-29T09:43:16;99671.73;;;10.01;75.06
31911;BME280;18457;52.432;16.914;2022-12-29T09:45:57;99669.42;;;10.01;75.06
31911;BME280;18457;52.432;16.914;2022-12-29T09:48:34;99667.66;;;10.10;74.92
31911;BME280;18457;52.432;16.914;2022-12-29T09:51:12;99670.83;;;10.18;74.67
31911;BME280;18457;52.432;16.914;2022-12-29T09:53:49;99667.50;;;10.15;74.85
31911;BME280;18457;52.432;16.914;2022-12-29T09:56:23;99662.80;;;10.31;74.43
31911;BME280;18457;52.432;16.914;2022-12-29T09:59:00;99666.84;;;10.34;73.86
31911;BME280;18457;52.432;16.914;2022-12-29T10:01:36;99667.75;;;10.44;73.65
31911;BME280;18457;52.432;16.914;2022-12-29T10:04:11;99660.45;;;10.61;73.21
31911;BME280;18457;52.432;16.914;2022-12-29T10:06:46;99664.28;;;10.65;72.61
31911;BME280;18457;52.432;16.914;2022-12-29T10:09:48;99657.52;;;10.77;72.22
31911;BME280;18457;52.432;16.914;2022-12-29T10:12:29;99658.36;;;10.79;71.95
31911;BME280;18457;52.432;16.914;2022-12-29T10:15:12;99657.58;;;10.95;71.78
31911;BME280;18457;52.432;16.914;2022-12-29T10:17:48;99656.23;;;10.92;71.23
31911;BME280;18457;52.432;16.914;2022-12-29T10:20:30;99646.55;;;11.04;71.07
31911;BME280;18457;52.432;16.914;2022-12-29T10:23:19;99645.68;;;11.17;70.51
31911;BME280;18457;52.432;16.914;2022-12-29T10:25:55;99645.25;;;11.33;70.27
31911;BME280;18457;52.432;16.914;2022-12-29T10:28:36;99650.45;;;11.43;69.67
31911;BME280;18457;52.432;16.914;2022-12-29T10:31:11;99651.25;;;11.27;70.15
31911;BME280;18457;52.432;16.914;2022-12-29T10:33:45;99657.33;;;11.06;70.62
31911;BME280;18457;52.432;16.914;2022-12-29T10:36:24;99649.62;;;10.94;71.29
31911;BME280;18457;52.432;16.914;2022-12-29T10:39:04;99640.55;;;11.10;70.98
31911;BME280;18457;52.432;16.914;2022-12-29T10:41:41;99642.73;;;11.19;70.51
31911;BME280;18457;52.432;16.914;2022-12-29T10:44:17;99645.02;;;11.15;70.83
31911;BME280;18457;52.432;16.914;2022-12-29T10:46:56;99644.67;;;11.33;70.27
31911;BME280;18457;52.432;16.914;2022-12-29T10:49:30;99649.66;;;11.31;70.21
31911;BME280;18457;52.432;16.914;2022-12-29T10:52:04;99638.50;;;11.20;70.73
31911;BME280;18457;52.432;16.914;2022-12-29T10:54:46;99632.82;;;11.31;70.42
31911;BME280;18457;52.432;16.914;2022-12-29T10:57:28;99632.92;;;11.65;69.37
31911;BME280;18457;52.432;16.914;2022-12-29T11:00:04;99638.23;;;11.81;68.71
31911;BME280;18457;52.432;16.914;2022-12-29T11:02:53;99640.61;;;11.81;68.57
31911;BME280;18457;52.432;16.914;2022-12-29T11:05:32;99622.23;;;12.09;67.75
31911;BME280;18457;52.432;16.914;2022-12-29T11:08:11;99621.48;;;12.09;67.57
31911;BME280;18457;52.432;16.914;2022-12-29T11:10:45;99624.69;;;12.02;67.55
31911;BME280;18457;52.432;16.914;2022-12-29T11:13:24;99608.96;;;12.18;66.87
31911;BME280;18457;52.432;16.914;2022-12-29T11:15:56;99607.98;;;12.37;66.53
31911;BME280;18457;52.432;16.914;2022-12-29T11:18:33;99611.62;;;12.48;65.96
31911;BME280;18457;52.432;16.914;2022-12-29T11:21:23;99607.59;;;12.45;66.12
31911;BME280;18457;52.432;16.914;2022-12-29T11:24:18;99602.23;;;12.44;66.25
31911;BME280;18457;52.432;16.914;2022-12-29T11:26:52;99595.63;;;12.49;66.06
31911;BME280;18457;52.432;16.914;2022-12-29T11:29:30;99597.13;;;12.56;66.20
31911;BME280;18457;52.432;16.914;2022-12-29T11:32:17;99593.74;;;12.59;65.80
31911;BME280;18457;52.432;16.914;2022-12-29T11:34:58;99599.10;;;12.53;65.85
31911;BME280;18457;52.432;16.914;2022-12-29T11:37:39;99600.54;;;12.41;66.19
31911;BME280;18457;52.432;16.914;2022-12-29T11:40:19;99596.90;;;12.45;66.35
31911;BME280;18457;52.432;16.914;2022-12-29T11:42:53;99593.16;;;12.36;66.43
31911;BME280;18457;52.432;16.914;2022-12-29T11:45:29;99599.12;;;12.28;66.73
31911;BME280;18457;52.432;16.914;2022-12-29T11:48:08;99602.11;;;12.13;67.40
31911;BME280;18457;52.432;16.914;2022-12-29T11:50:48;99597.49;;;12.11;67.51
31911;BME280;18457;52.432;16.914;2022-12-29T11:53:23;99600.84;;;12.14;67.48
31911;BME280;18457;52.432;16.914;2022-12-29T11:55:58;99590.36;;;12.26;67.39
31911;BME280;18457;52.432;16.914;2022-12-29T11:58:33;99593.71;;;12.27;67.17
31911;BME280;18457;52.432;16.914;2022-12-29T12:01:09;99591.11;;;12.25;67.31
31911;BME280;18457;52.432;16.914;2022-12-29T12:03:46;99587.83;;;12.37;67.01
31911;BME280;18457;52.432;16.914;2022-12-29T12:06:21;99590.59;;;12.44;66.73
31911;BME280;18457;52.432;16.914;2022-12-29T12:08:57;99599.29;;;12.28;66.99
31911;BME280;18457;52.432;16.914;2022-12-29T12:11:34;99592.22;;;12.41;67.09
31911;BME280;18457;52.432;16.914;2022-12-29T12:14:17;99592.73;;;12.61;66.38
31911;BME280;18457;52.432;16.914;2022-12-29T12:17:21;99585.85;;;12.65;66.02
31911;BME280;18457;52.432;16.914;2022-12-29T12:20:00;99585.84;;;12.65;66.21
31911;BME280;18457;52.432;16.914;2022-12-29T12:22:36;99581.67;;;12.69;66.12
31911;BME280;18457;52.432;16.914;2022-12-29T12:25:16;99584.23;;;12.84;65.73
31911;BME280;18457;52.432;16.914;2022-12-29T12:27:55;99585.20;;;12.83;65.68
31911;BME280;18457;52.432;16.914;2022-12-29T12:30:33;99581.05;;;12.83;65.77
31911;BME280;18457;52.432;16.914;2022-12-29T12:33:18;99586.14;;;12.94;65.44
31911;BME280;18457;52.432;16.914;2022-12-29T12:36:02;99581.34;;;12.84;65.47
31911;BME280;18457;52.432;16.914;2022-12-29T12:38:44;99583.09;;;12.97;65.55
31911;BME280;18457;52.432;16.914;2022-12-29T12:41:37;99578.61;;;13.07;65.23
31911;BME280;18457;52.432;16.914;2022-12-29T12:44:24;99575.35;;;13.11;64.80
31911;BME280;18457;52.432;16.914;2022-12-29T12:47:10;99572.73;;;13.09;64.63
31911;BME280;18457;52.432;16.914;2022-12-29T12:50:07;99576.55;;;13.01;64.85
31911;BME280;18457;52.432;16.914;2022-12-29T12:52:54;99582.67;;;12.86;65.12
31911;BME280;18457;52.432;16.914;2022-12-29T12:55:49;99583.88;;;12.84;65.28
31911;BME280;18457;52.432;16.914;2022-12-29T12:58:32;99581.08;;;12.86;65.48
31911;BME280;18457;52.432;16.914;2022-12-29T13:01:22;99580.34;;;12.74;65.71
31911;BME280;18457;52.432;16.914;2022-12-29T13:04:09;99581.19;;;12.64;65.89
31911;BME280;18457;52.432;16.914;2022-12-29T13:06:54;99585.00;;;12.56;66.10
31911;BME280;18457;52.432;16.914;2022-12-29T13:09:50;99580.67;;;12.47;66.33
31911;BME280;18457;52.432;16.914;2022-12-29T13:12:36;99582.88;;;12.47;66.30
31911;BME280;18457;52.432;16.914;2022-12-29T13:15:21;99579.35;;;12.45;66.59
31911;BME280;18457;52.432;16.914;2022-12-29T13:18:06;99580.77;;;12.49;66.50
31911;BME280;18457;52.432;16.914;2022-12-29T13:20:47;99577.76;;;12.40;66.57
31911;BME280;18457;52.432;16.914;2022-12-29T13:23:26;99578.47;;;12.44;66.63
31911;BME280;18457;52.432;16.914;2022-12-29T13:26:06;99582.21;;;12.41;66.53
31911;BME280;18457;52.432;16.914;2022-12-29T13:28:57;99588.19;;;12.34;66.63
31911;BME280;18457;52.432;16.914;2022-12-29T13:31:35;99587.25;;;12.35;66.64
31911;BME280;18457;52.432;16.914;2022-12-29T13:34:16;99587.40;;;12.31;66.70
31911;BME280;18457;52.432;16.914;2022-12-29T13:36:53;99590.55;;;12.25;66.74
31911;BME280;18457;52.432;16.914;2022-12-29T13:39:30;99588.63;;;12.19;66.76
31911;BME280;18457;52.432;16.914;2022-12-29T13:42:05;99577.59;;;12.15;66.83
31911;BME280;18457;52.432;16.914;2022-12-29T13:44:41;99583.67;;;12.17;66.87
31911;BME280;18457;52.432;16.914;2022-12-29T13:48:13;99578.95;;;12.13;66.92
31911;BME280;18457;52.432;16.914;2022-12-29T13:50:52;99576.23;;;12.13;67.00
31911;BME280;18457;52.432;16.914;2022-12-29T13:53:29;99579.48;;;12.09;67.16
31911;BME280;18457;52.432;16.914;2022-12-29T13:56:09;99575.56;;;12.08;67.28